sensor_id;sensor_type;location;lat;lon;timestamp;P1;durP1;ratioP1;P2;durP2;ratioP2
74291;SDS011;62687;55.738;37.516;2022-10-17T00:01:24;4.95;;;3.00;;
74291;SDS011;62687;55.738;37.516;2022-10-17T00:04:08;8.02;;;3.63;;
74291;SDS011;62687;55.738;37.516;2022-10-17T00:06:53;5.68;;;3.40;;
74291;SDS011;62687;55.738;37.516;2022-10-17T00:09:38;6.05;;;3.28;;
74291;SDS011;62687;55.738;37.516;2022-10-17T00:12:25;5.95;;;3.53;;
74291;SDS011;62687;55.738;37.516;2022-10-17T00:15:09;7.60;;;3.17;;
74291;SDS011;62687;55.738;37.516;2022-10-17T00:17:57;8.52;;;4.00;;
74291;SDS011;62687;55.738;37.516;2022-10-17T00:20:41;7.13;;;3.20;;
74291;SDS011;62687;55.738;37.516;2022-10-17T00:23:25;5.55;;;2.95;;
74291;SDS011;62687;55.738;37.516;2022-10-17T00:26:13;9.35;;;3.80;;
74291;SDS011;62687;55.738;37.516;2022-10-17T00:31:42;6.03;;;2.90;;
74291;SDS011;62687;55.738;37.516;2022-10-17T00:34:27;6.13;;;3.33;;
74291;SDS011;62687;55.738;37.516;2022-10-17T00:37:12;5.25;;;3.33;;
74291;SDS011;62687;55.738;37.516;2022-10-17T00:39:57;6.95;;;3.33;;
74291;SDS011;62687;55.738;37.516;2022-10-17T00:42:41;8.38;;;3.08;;
74291;SDS011;62687;55.738;37.516;2022-10-17T00:45:26;7.28;;;3.40;;
74291;SDS011;62687;55.738;37.516;2022-10-17T00:48:12;8.15;;;3.58;;
74291;SDS011;62687;55.738;37.516;2022-10-17T00:50:58;7.85;;;3.40;;
74291;SDS011;62687;55.738;37.516;2022-10-17T00:53:42;7.15;;;3.53;;
74291;SDS011;62687;55.738;37.516;2022-10-17T00:56:27;10.57;;;3.50;;
74291;SDS011;62687;55.738;37.516;2022-10-17T00:59:12;10.65;;;3.38;;
74291;SDS011;62687;55.738;37.516;2022-10-17T01:01:59;7.35;;;3.20;;
74291;SDS011;62687;55.738;37.516;2022-10-17T01:04:47;5.07;;;3.00;;
74291;SDS011;62687;55.738;37.516;2022-10-17T01:07:34;8.63;;;3.30;;
74291;SDS011;62687;55.738;37.516;2022-10-17T01:10:19;6.13;;;3.10;;
74291;SDS011;62687;55.738;37.516;2022-10-17T01:13:10;5.28;;;3.22;;
74291;SDS011;62687;55.738;37.516;2022-10-17T01:16:07;8.10;;;3.08;;
74291;SDS011;62687;55.738;37.516;2022-10-17T01:25:28;9.52;;;3.10;;
74291;SDS011;62687;55.738;37.516;2022-10-17T01:38:22;7.45;;;3.33;;
74291;SDS011;62687;55.738;37.516;2022-10-17T01:44:12;6.45;;;2.65;;
74291;SDS011;62687;55.738;37.516;2022-10-17T01:47:04;8.52;;;3.03;;
74291;SDS011;62687;55.738;37.516;2022-10-17T01:49:52;5.75;;;3.55;;
74291;SDS011;62687;55.738;37.516;2022-10-17T01:52:52;7.68;;;3.20;;
74291;SDS011;62687;55.738;37.516;2022-10-17T01:55:40;9.98;;;3.58;;
74291;SDS011;62687;55.738;37.516;2022-10-17T01:58:37;5.97;;;3.65;;
74291;SDS011;62687;55.738;37.516;2022-10-17T02:01:26;6.82;;;4.20;;
74291;SDS011;62687;55.738;37.516;2022-10-17T02:04:13;6.80;;;3.25;;
74291;SDS011;62687;55.738;37.516;2022-10-17T02:07:06;7.15;;;3.10;;
74291;SDS011;62687;55.738;37.516;2022-10-17T02:09:54;7.40;;;3.42;;
74291;SDS011;62687;55.738;37.516;2022-10-17T02:18:14;8.80;;;2.72;;
74291;SDS011;62687;55.738;37.516;2022-10-17T02:21:03;6.63;;;3.05;;
74291;SDS011;62687;55.738;37.516;2022-10-17T02:26:54;6.68;;;3.35;;
74291;SDS011;62687;55.738;37.516;2022-10-17T02:29:56;10.48;;;3.55;;
74291;SDS011;62687;55.738;37.516;2022-10-17T02:32:51;4.88;;;3.00;;
74291;SDS011;62687;55.738;37.516;2022-10-17T02:35:39;6.53;;;3.22;;
74291;SDS011;62687;55.738;37.516;2022-10-17T02:38:29;5.32;;;3.15;;
74291;SDS011;62687;55.738;37.516;2022-10-17T02:41:15;9.98;;;3.38;;
74291;SDS011;62687;55.738;37.516;2022-10-17T02:44:02;4.78;;;2.92;;
74291;SDS011;62687;55.738;37.516;2022-10-17T02:46:49;4.97;;;3.28;;
74291;SDS011;62687;55.738;37.516;2022-10-17T02:49:39;6.90;;;3.20;;
74291;SDS011;62687;55.738;37.516;2022-10-17T02:52:44;5.47;;;3.22;;
74291;SDS011;62687;55.738;37.516;2022-10-17T02:55:35;7.82;;;3.15;;
74291;SDS011;62687;55.738;37.516;2022-10-17T03:01:12;6.85;;;3.20;;
74291;SDS011;62687;55.738;37.516;2022-10-17T03:04:08;7.05;;;3.15;;
74291;SDS011;62687;55.738;37.516;2022-10-17T03:06:55;6.00;;;3.33;;
74291;SDS011;62687;55.738;37.516;2022-10-17T03:09:39;5.97;;;3.10;;
74291;SDS011;62687;55.738;37.516;2022-10-17T03:12:23;7.13;;;3.35;;
74291;SDS011;62687;55.738;37.516;2022-10-17T03:15:08;6.15;;;3.17;;
74291;SDS011;62687;55.738;37.516;2022-10-17T03:17:53;9.93;;;3.33;;
74291;SDS011;62687;55.738;37.516;2022-10-17T03:20:37;8.10;;;3.22;;
74291;SDS011;62687;55.738;37.516;2022-10-17T03:23:21;11.43;;;3.53;;
74291;SDS011;62687;55.738;37.516;2022-10-17T03:26:05;5.32;;;3.10;;
74291;SDS011;62687;55.738;37.516;2022-10-17T03:28:50;8.02;;;3.33;;
74291;SDS011;62687;55.738;37.516;2022-10-17T03:31:34;9.68;;;4.18;;
74291;SDS011;62687;55.738;37.516;2022-10-17T03:34:18;10.80;;;3.35;;
74291;SDS011;62687;55.738;37.516;2022-10-17T03:37:03;14.40;;;3.63;;
74291;SDS011;62687;55.738;37.516;2022-10-17T03:39:47;14.85;;;3.53;;
74291;SDS011;62687;55.738;37.516;2022-10-17T03:42:31;8.98;;;3.58;;
74291;SDS011;62687;55.738;37.516;2022-10-17T03:45:15;9.98;;;3.08;;
74291;SDS011;62687;55.738;37.516;2022-10-17T03:47:59;11.43;;;3.50;;
74291;SDS011;62687;55.738;37.516;2022-10-17T03:50:44;12.63;;;4.30;;
74291;SDS011;62687;55.738;37.516;2022-10-17T03:53:28;13.30;;;3.63;;
74291;SDS011;62687;55.738;37.516;2022-10-17T03:56:13;7.57;;;3.50;;
74291;SDS011;62687;55.738;37.516;2022-10-17T03:58:59;7.35;;;3.35;;
74291;SDS011;62687;55.738;37.516;2022-10-17T04:01:43;8.63;;;3.22;;
74291;SDS011;62687;55.738;37.516;2022-10-17T04:04:28;6.20;;;3.67;;
74291;SDS011;62687;55.738;37.516;2022-10-17T04:07:12;12.77;;;3.30;;
74291;SDS011;62687;55.738;37.516;2022-10-17T04:09:57;7.38;;;3.97;;
74291;SDS011;62687;55.738;37.516;2022-10-17T04:12:41;6.63;;;3.65;;
74291;SDS011;62687;55.738;37.516;2022-10-17T04:15:25;8.40;;;3.85;;
74291;SDS011;62687;55.738;37.516;2022-10-17T04:18:10;10.68;;;3.70;;
74291;SDS011;62687;55.738;37.516;2022-10-17T04:20:54;6.68;;;3.70;;
74291;SDS011;62687;55.738;37.516;2022-10-17T04:23:38;12.15;;;3.58;;
74291;SDS011;62687;55.738;37.516;2022-10-17T04:26:23;7.80;;;3.78;;
74291;SDS011;62687;55.738;37.516;2022-10-17T04:29:07;5.93;;;3.40;;
74291;SDS011;62687;55.738;37.516;2022-10-17T04:31:52;8.10;;;3.58;;
74291;SDS011;62687;55.738;37.516;2022-10-17T04:34:36;10.30;;;3.45;;
74291;SDS011;62687;55.738;37.516;2022-10-17T04:37:20;6.35;;;3.50;;
74291;SDS011;62687;55.738;37.516;2022-10-17T04:40:04;8.60;;;3.58;;
74291;SDS011;62687;55.738;37.516;2022-10-17T04:42:49;10.95;;;3.17;;
74291;SDS011;62687;55.738;37.516;2022-10-17T04:45:34;7.82;;;3.70;;
74291;SDS011;62687;55.738;37.516;2022-10-17T04:48:18;9.27;;;3.47;;
74291;SDS011;62687;55.738;37.516;2022-10-17T04:51:03;5.72;;;3.30;;
74291;SDS011;62687;55.738;37.516;2022-10-17T04:53:49;9.82;;;3.47;;
74291;SDS011;62687;55.738;37.516;2022-10-17T04:56:33;14.38;;;3.92;;
74291;SDS011;62687;55.738;37.516;2022-10-17T04:59:17;7.57;;;3.80;;
74291;SDS011;62687;55.738;37.516;2022-10-17T05:02:02;9.43;;;3.67;;
74291;SDS011;62687;55.738;37.516;2022-10-17T05:04:46;13.25;;;3.97;;
74291;SDS011;62687;55.738;37.516;2022-10-17T05:07:30;11.63;;;4.10;;
74291;SDS011;62687;55.738;37.516;2022-10-17T05:10:14;10.32;;;3.45;;
74291;SDS011;62687;55.738;37.516;2022-10-17T05:12:58;9.95;;;3.75;;
74291;SDS011;62687;55.738;37.516;2022-10-17T05:15:42;8.73;;;3.08;;
74291;SDS011;62687;55.738;37.516;2022-10-17T05:18:27;9.35;;;3.67;;
74291;SDS011;62687;55.738;37.516;2022-10-17T05:21:11;7.30;;;3.22;;
74291;SDS011;62687;55.738;37.516;2022-10-17T05:23:56;7.80;;;3.42;;
74291;SDS011;62687;55.738;37.516;2022-10-17T05:26:40;10.68;;;3.70;;
74291;SDS011;62687;55.738;37.516;2022-10-17T05:29:25;9.98;;;3.80;;
74291;SDS011;62687;55.738;37.516;2022-10-17T05:32:09;6.70;;;3.40;;
74291;SDS011;62687;55.738;37.516;2022-10-17T05:34:53;8.20;;;3.47;;
74291;SDS011;62687;55.738;37.516;2022-10-17T05:37:37;7.05;;;3.70;;
74291;SDS011;62687;55.738;37.516;2022-10-17T05:40:21;8.48;;;4.10;;
74291;SDS011;62687;55.738;37.516;2022-10-17T05:43:05;8.15;;;3.47;;
74291;SDS011;62687;55.738;37.516;2022-10-17T05:45:50;9.00;;;3.90;;
74291;SDS011;62687;55.738;37.516;2022-10-17T05:48:34;9.32;;;3.97;;
74291;SDS011;62687;55.738;37.516;2022-10-17T05:51:18;12.13;;;3.90;;
74291;SDS011;62687;55.738;37.516;2022-10-17T05:54:04;9.05;;;3.25;;
74291;SDS011;62687;55.738;37.516;2022-10-17T05:56:52;6.07;;;3.40;;
74291;SDS011;62687;55.738;37.516;2022-10-17T05:59:38;8.15;;;3.60;;
74291;SDS011;62687;55.738;37.516;2022-10-17T06:02:22;9.05;;;3.50;;
74291;SDS011;62687;55.738;37.516;2022-10-17T06:05:06;8.52;;;3.38;;
74291;SDS011;62687;55.738;37.516;2022-10-17T06:07:50;10.32;;;3.83;;
74291;SDS011;62687;55.738;37.516;2022-10-17T06:13:19;7.88;;;3.78;;
74291;SDS011;62687;55.738;37.516;2022-10-17T06:16:03;13.75;;;4.13;;
74291;SDS011;62687;55.738;37.516;2022-10-17T06:18:47;7.32;;;3.67;;
74291;SDS011;62687;55.738;37.516;2022-10-17T06:21:31;7.88;;;3.20;;
74291;SDS011;62687;55.738;37.516;2022-10-17T06:24:18;11.88;;;4.15;;
74291;SDS011;62687;55.738;37.516;2022-10-17T06:27:03;11.07;;;4.07;;
74291;SDS011;62687;55.738;37.516;2022-10-17T06:29:47;13.98;;;4.10;;
74291;SDS011;62687;55.738;37.516;2022-10-17T06:32:33;9.50;;;3.45;;
74291;SDS011;62687;55.738;37.516;2022-10-17T06:35:17;7.20;;;3.55;;
74291;SDS011;62687;55.738;37.516;2022-10-17T06:38:02;12.68;;;3.53;;
74291;SDS011;62687;55.738;37.516;2022-10-17T06:40:46;8.13;;;3.75;;
74291;SDS011;62687;55.738;37.516;2022-10-17T06:43:30;10.52;;;3.78;;
74291;SDS011;62687;55.738;37.516;2022-10-17T06:46:17;11.07;;;3.30;;
74291;SDS011;62687;55.738;37.516;2022-10-17T06:49:02;13.70;;;3.78;;
74291;SDS011;62687;55.738;37.516;2022-10-17T06:54:31;9.43;;;3.50;;
74291;SDS011;62687;55.738;37.516;2022-10-17T06:57:15;9.30;;;4.00;;
74291;SDS011;62687;55.738;37.516;2022-10-17T06:59:59;10.07;;;3.22;;
74291;SDS011;62687;55.738;37.516;2022-10-17T07:02:43;6.90;;;3.83;;
74291;SDS011;62687;55.738;37.516;2022-10-17T07:05:29;11.07;;;3.80;;
74291;SDS011;62687;55.738;37.516;2022-10-17T07:08:13;14.00;;;4.20;;
74291;SDS011;62687;55.738;37.516;2022-10-17T07:10:57;10.55;;;3.78;;
74291;SDS011;62687;55.738;37.516;2022-10-17T07:13:50;9.45;;;4.22;;
74291;SDS011;62687;55.738;37.516;2022-10-17T07:16:35;11.90;;;4.13;;
74291;SDS011;62687;55.738;37.516;2022-10-17T07:19:19;9.88;;;3.83;;
74291;SDS011;62687;55.738;37.516;2022-10-17T07:22:04;11.25;;;4.00;;
74291;SDS011;62687;55.738;37.516;2022-10-17T07:24:48;9.80;;;3.75;;
74291;SDS011;62687;55.738;37.516;2022-10-17T07:27:32;9.70;;;4.00;;
74291;SDS011;62687;55.738;37.516;2022-10-17T07:30:17;7.93;;;3.22;;
74291;SDS011;62687;55.738;37.516;2022-10-17T07:33:01;13.10;;;3.92;;
74291;SDS011;62687;55.738;37.516;2022-10-17T07:35:46;8.63;;;3.55;;
74291;SDS011;62687;55.738;37.516;2022-10-17T07:38:30;9.63;;;3.60;;
74291;SDS011;62687;55.738;37.516;2022-10-17T07:41:14;9.30;;;3.55;;
74291;SDS011;62687;55.738;37.516;2022-10-17T07:43:58;8.15;;;3.80;;
74291;SDS011;62687;55.738;37.516;2022-10-17T07:46:43;7.15;;;3.08;;
74291;SDS011;62687;55.738;37.516;2022-10-17T07:49:27;8.00;;;3.67;;
74291;SDS011;62687;55.738;37.516;2022-10-17T07:52:12;9.40;;;3.42;;
74291;SDS011;62687;55.738;37.516;2022-10-17T07:54:57;7.82;;;3.53;;
74291;SDS011;62687;55.738;37.516;2022-10-17T07:57:41;7.82;;;3.92;;
74291;SDS011;62687;55.738;37.516;2022-10-17T08:00:26;9.07;;;3.92;;
74291;SDS011;62687;55.738;37.516;2022-10-17T08:03:09;12.25;;;4.32;;
74291;SDS011;62687;55.738;37.516;2022-10-17T08:05:57;11.73;;;4.22;;
74291;SDS011;62687;55.738;37.516;2022-10-17T08:08:44;7.72;;;4.47;;
74291;SDS011;62687;55.738;37.516;2022-10-17T08:11:29;10.35;;;3.88;;
74291;SDS011;62687;55.738;37.516;2022-10-17T08:14:13;11.27;;;4.20;;
74291;SDS011;62687;55.738;37.516;2022-10-17T08:16:59;11.77;;;4.53;;
74291;SDS011;62687;55.738;37.516;2022-10-17T08:19:43;10.95;;;4.30;;
74291;SDS011;62687;55.738;37.516;2022-10-17T08:22:28;12.77;;;4.32;;
74291;SDS011;62687;55.738;37.516;2022-10-17T08:25:12;16.77;;;4.20;;
74291;SDS011;62687;55.738;37.516;2022-10-17T08:27:56;9.32;;;4.82;;
74291;SDS011;62687;55.738;37.516;2022-10-17T08:30:41;10.13;;;4.65;;
74291;SDS011;62687;55.738;37.516;2022-10-17T08:33:25;9.55;;;4.88;;
74291;SDS011;62687;55.738;37.516;2022-10-17T08:36:09;12.20;;;4.85;;
74291;SDS011;62687;55.738;37.516;2022-10-17T08:38:56;7.10;;;3.72;;
74291;SDS011;62687;55.738;37.516;2022-10-17T08:41:59;8.15;;;3.88;;
74291;SDS011;62687;55.738;37.516;2022-10-17T08:47:58;9.45;;;4.25;;
74291;SDS011;62687;55.738;37.516;2022-10-17T08:50:55;12.80;;;4.78;;
74291;SDS011;62687;55.738;37.516;2022-10-17T08:53:57;11.77;;;4.07;;
74291;SDS011;62687;55.738;37.516;2022-10-17T08:56:45;10.00;;;4.68;;
74291;SDS011;62687;55.738;37.516;2022-10-17T08:59:32;10.50;;;5.00;;
74291;SDS011;62687;55.738;37.516;2022-10-17T09:12:13;8.50;;;4.10;;
74291;SDS011;62687;55.738;37.516;2022-10-17T09:18:02;10.80;;;5.28;;
74291;SDS011;62687;55.738;37.516;2022-10-17T09:21:07;11.98;;;5.90;;
74291;SDS011;62687;55.738;37.516;2022-10-17T09:24:09;13.38;;;4.53;;
74291;SDS011;62687;55.738;37.516;2022-10-17T09:26:57;12.35;;;5.10;;
74291;SDS011;62687;55.738;37.516;2022-10-17T09:29:42;6.10;;;3.47;;
74291;SDS011;62687;55.738;37.516;2022-10-17T09:32:31;11.45;;;5.60;;
74291;SDS011;62687;55.738;37.516;2022-10-17T09:35:16;11.65;;;5.07;;
74291;SDS011;62687;55.738;37.516;2022-10-17T09:38:02;14.90;;;6.20;;
74291;SDS011;62687;55.738;37.516;2022-10-17T09:40:49;14.20;;;6.95;;
74291;SDS011;62687;55.738;37.516;2022-10-17T09:43:38;11.75;;;5.28;;
74291;SDS011;62687;55.738;37.516;2022-10-17T09:49:13;10.57;;;5.68;;
74291;SDS011;62687;55.738;37.516;2022-10-17T09:52:05;8.88;;;6.20;;
74291;SDS011;62687;55.738;37.516;2022-10-17T09:55:04;11.82;;;6.32;;
74291;SDS011;62687;55.738;37.516;2022-10-17T09:58:01;12.07;;;5.38;;
74291;SDS011;62687;55.738;37.516;2022-10-17T10:00:47;12.40;;;6.00;;
74291;SDS011;62687;55.738;37.516;2022-10-17T10:03:32;9.18;;;5.65;;
74291;SDS011;62687;55.738;37.516;2022-10-17T10:06:17;11.55;;;6.18;;
74291;SDS011;62687;55.738;37.516;2022-10-17T10:09:03;9.43;;;5.85;;
74291;SDS011;62687;55.738;37.516;2022-10-17T10:11:55;8.52;;;4.85;;
74291;SDS011;62687;55.738;37.516;2022-10-17T10:14:41;11.88;;;6.13;;
74291;SDS011;62687;55.738;37.516;2022-10-17T10:20:26;13.32;;;5.88;;
74291;SDS011;62687;55.738;37.516;2022-10-17T10:23:11;10.52;;;4.75;;
74291;SDS011;62687;55.738;37.516;2022-10-17T10:26:01;10.77;;;5.45;;
74291;SDS011;62687;55.738;37.516;2022-10-17T10:28:52;10.77;;;6.68;;
74291;SDS011;62687;55.738;37.516;2022-10-17T10:31:37;10.88;;;5.97;;
74291;SDS011;62687;55.738;37.516;2022-10-17T10:34:27;12.73;;;5.97;;
74291;SDS011;62687;55.738;37.516;2022-10-17T10:37:17;13.38;;;7.13;;
74291;SDS011;62687;55.738;37.516;2022-10-17T10:40:05;9.82;;;5.55;;
74291;SDS011;62687;55.738;37.516;2022-10-17T10:43:01;11.60;;;6.30;;
74291;SDS011;62687;55.738;37.516;2022-10-17T10:45:45;11.15;;;6.07;;
74291;SDS011;62687;55.738;37.516;2022-10-17T10:48:34;11.07;;;5.90;;
74291;SDS011;62687;55.738;37.516;2022-10-17T10:51:23;11.77;;;5.20;;
74291;SDS011;62687;55.738;37.516;2022-10-17T10:54:28;9.13;;;5.18;;
74291;SDS011;62687;55.738;37.516;2022-10-17T10:57:18;8.77;;;5.22;;
74291;SDS011;62687;55.738;37.516;2022-10-17T11:00:17;9.05;;;5.72;;
74291;SDS011;62687;55.738;37.516;2022-10-17T11:06:04;11.23;;;5.82;;
74291;SDS011;62687;55.738;37.516;2022-10-17T11:11:54;11.68;;;5.82;;
74291;SDS011;62687;55.738;37.516;2022-10-17T11:14:52;11.75;;;5.65;;
74291;SDS011;62687;55.738;37.516;2022-10-17T11:24:00;12.23;;;6.30;;
74291;SDS011;62687;55.738;37.516;2022-10-17T11:27:00;11.55;;;6.15;;
74291;SDS011;62687;55.738;37.516;2022-10-17T11:29:46;12.70;;;6.85;;
74291;SDS011;62687;55.738;37.516;2022-10-17T11:32:37;11.85;;;6.55;;
74291;SDS011;62687;55.738;37.516;2022-10-17T11:35:29;12.38;;;6.65;;
74291;SDS011;62687;55.738;37.516;2022-10-17T11:41:42;10.07;;;6.30;;
74291;SDS011;62687;55.738;37.516;2022-10-17T11:44:36;12.35;;;6.40;;
74291;SDS011;62687;55.738;37.516;2022-10-17T11:47:27;10.95;;;6.13;;
74291;SDS011;62687;55.738;37.516;2022-10-17T11:53:16;13.40;;;6.63;;
74291;SDS011;62687;55.738;37.516;2022-10-17T11:56:04;11.43;;;7.50;;
74291;SDS011;62687;55.738;37.516;2022-10-17T11:59:23;12.10;;;6.05;;
74291;SDS011;62687;55.738;37.516;2022-10-17T12:02:11;8.77;;;4.70;;
74291;SDS011;62687;55.738;37.516;2022-10-17T12:08:04;11.80;;;5.93;;
74291;SDS011;62687;55.738;37.516;2022-10-17T12:15:13;13.80;;;7.80;;
74291;SDS011;62687;55.738;37.516;2022-10-17T12:17:36;15.32;;;8.32;;
74291;SDS011;62687;55.738;37.516;2022-10-17T12:20:24;14.07;;;8.02;;
74291;SDS011;62687;55.738;37.516;2022-10-17T12:25:57;12.90;;;7.70;;
74291;SDS011;62687;55.738;37.516;2022-10-17T12:28:44;15.70;;;7.60;;
74291;SDS011;62687;55.738;37.516;2022-10-17T12:31:30;10.68;;;5.63;;
74291;SDS011;62687;55.738;37.516;2022-10-17T12:34:15;16.80;;;7.93;;
74291;SDS011;62687;55.738;37.516;2022-10-17T12:37:02;13.63;;;7.55;;
74291;SDS011;62687;55.738;37.516;2022-10-17T12:39:47;13.65;;;7.40;;
74291;SDS011;62687;55.738;37.516;2022-10-17T12:45:00;12.65;;;6.70;;
74291;SDS011;62687;55.738;37.516;2022-10-17T12:47:44;14.77;;;8.10;;
74291;SDS011;62687;55.738;37.516;2022-10-17T12:56:57;16.20;;;8.38;;
74291;SDS011;62687;55.738;37.516;2022-10-17T12:59:42;11.80;;;6.63;;
74291;SDS011;62687;55.738;37.516;2022-10-17T13:02:26;13.00;;;5.32;;
74291;SDS011;62687;55.738;37.516;2022-10-17T13:05:15;15.52;;;7.68;;
74291;SDS011;62687;55.738;37.516;2022-10-17T13:08:14;13.45;;;7.05;;
74291;SDS011;62687;55.738;37.516;2022-10-17T13:11:22;12.65;;;7.22;;
74291;SDS011;62687;55.738;37.516;2022-10-17T13:14:11;9.55;;;5.25;;
74291;SDS011;62687;55.738;37.516;2022-10-17T13:19:43;15.20;;;7.38;;
74291;SDS011;62687;55.738;37.516;2022-10-17T13:22:29;13.63;;;7.75;;
74291;SDS011;62687;55.738;37.516;2022-10-17T13:25:16;8.80;;;5.05;;
74291;SDS011;62687;55.738;37.516;2022-10-17T13:28:04;15.27;;;7.20;;
74291;SDS011;62687;55.738;37.516;2022-10-17T13:30:54;13.05;;;7.38;;
74291;SDS011;62687;55.738;37.516;2022-10-17T13:33:39;18.70;;;7.97;;
74291;SDS011;62687;55.738;37.516;2022-10-17T13:36:23;14.10;;;6.88;;
74291;SDS011;62687;55.738;37.516;2022-10-17T13:39:09;13.15;;;6.47;;
74291;SDS011;62687;55.738;37.516;2022-10-17T13:41:58;16.83;;;8.35;;
74291;SDS011;62687;55.738;37.516;2022-10-17T13:44:42;17.40;;;9.25;;
74291;SDS011;62687;55.738;37.516;2022-10-17T13:47:27;13.70;;;7.18;;
74291;SDS011;62687;55.738;37.516;2022-10-17T13:50:18;14.70;;;7.25;;
74291;SDS011;62687;55.738;37.516;2022-10-17T13:59:17;14.20;;;7.60;;
74291;SDS011;62687;55.738;37.516;2022-10-17T14:02:12;20.50;;;9.25;;
74291;SDS011;62687;55.738;37.516;2022-10-17T14:10:32;15.38;;;7.50;;
74291;SDS011;62687;55.738;37.516;2022-10-17T14:13:23;18.15;;;8.45;;
74291;SDS011;62687;55.738;37.516;2022-10-17T14:16:11;12.55;;;5.00;;
74291;SDS011;62687;55.738;37.516;2022-10-17T14:18:55;19.02;;;8.93;;
74291;SDS011;62687;55.738;37.516;2022-10-17T14:21:40;19.13;;;8.30;;
74291;SDS011;62687;55.738;37.516;2022-10-17T14:24:27;18.52;;;8.07;;
74291;SDS011;62687;55.738;37.516;2022-10-17T14:27:26;14.05;;;7.47;;
74291;SDS011;62687;55.738;37.516;2022-10-17T14:33:13;13.10;;;7.22;;
74291;SDS011;62687;55.738;37.516;2022-10-17T14:36:01;15.93;;;8.35;;
74291;SDS011;62687;55.738;37.516;2022-10-17T14:38:49;12.23;;;6.18;;
74291;SDS011;62687;55.738;37.516;2022-10-17T14:41:34;15.05;;;7.10;;
74291;SDS011;62687;55.738;37.516;2022-10-17T14:44:28;16.05;;;6.90;;
74291;SDS011;62687;55.738;37.516;2022-10-17T14:47:16;16.38;;;8.38;;
74291;SDS011;62687;55.738;37.516;2022-10-17T14:55:56;17.25;;;8.98;;
74291;SDS011;62687;55.738;37.516;2022-10-17T14:58:43;19.10;;;9.80;;
74291;SDS011;62687;55.738;37.516;2022-10-17T15:01:27;16.67;;;8.07;;
74291;SDS011;62687;55.738;37.516;2022-10-17T15:04:11;13.13;;;7.90;;
74291;SDS011;62687;55.738;37.516;2022-10-17T15:06:55;16.63;;;8.80;;
74291;SDS011;62687;55.738;37.516;2022-10-17T15:09:41;14.00;;;7.90;;
74291;SDS011;62687;55.738;37.516;2022-10-17T15:12:26;15.77;;;8.13;;
74291;SDS011;62687;55.738;37.516;2022-10-17T15:15:10;12.30;;;6.93;;
74291;SDS011;62687;55.738;37.516;2022-10-17T15:17:55;13.27;;;7.40;;
74291;SDS011;62687;55.738;37.516;2022-10-17T15:20:39;16.00;;;8.00;;
74291;SDS011;62687;55.738;37.516;2022-10-17T15:23:23;15.10;;;7.50;;
74291;SDS011;62687;55.738;37.516;2022-10-17T15:26:11;19.42;;;8.88;;
74291;SDS011;62687;55.738;37.516;2022-10-17T15:29:13;16.42;;;8.30;;
74291;SDS011;62687;55.738;37.516;2022-10-17T15:31:58;18.00;;;9.35;;
74291;SDS011;62687;55.738;37.516;2022-10-17T15:34:42;16.98;;;7.95;;
74291;SDS011;62687;55.738;37.516;2022-10-17T15:37:26;14.40;;;8.13;;
74291;SDS011;62687;55.738;37.516;2022-10-17T15:40:23;16.25;;;8.32;;
74291;SDS011;62687;55.738;37.516;2022-10-17T15:43:11;16.88;;;8.68;;
74291;SDS011;62687;55.738;37.516;2022-10-17T15:45:55;17.85;;;6.70;;
74291;SDS011;62687;55.738;37.516;2022-10-17T15:48:42;15.27;;;8.75;;
74291;SDS011;62687;55.738;37.516;2022-10-17T15:51:26;15.80;;;7.63;;
74291;SDS011;62687;55.738;37.516;2022-10-17T15:54:10;17.63;;;9.20;;
74291;SDS011;62687;55.738;37.516;2022-10-17T15:56:54;16.42;;;8.30;;
74291;SDS011;62687;55.738;37.516;2022-10-17T15:59:38;17.40;;;9.18;;
74291;SDS011;62687;55.738;37.516;2022-10-17T16:02:22;16.48;;;7.55;;
74291;SDS011;62687;55.738;37.516;2022-10-17T16:05:14;11.75;;;6.82;;
74291;SDS011;62687;55.738;37.516;2022-10-17T16:08:05;15.43;;;8.60;;
74291;SDS011;62687;55.738;37.516;2022-10-17T16:10:50;14.50;;;8.80;;
74291;SDS011;62687;55.738;37.516;2022-10-17T16:16:19;14.77;;;8.57;;
74291;SDS011;62687;55.738;37.516;2022-10-17T16:21:49;13.15;;;7.30;;
74291;SDS011;62687;55.738;37.516;2022-10-17T16:24:33;16.42;;;8.05;;
74291;SDS011;62687;55.738;37.516;2022-10-17T16:27:17;17.80;;;8.27;;
74291;SDS011;62687;55.738;37.516;2022-10-17T16:30:02;13.18;;;7.13;;
74291;SDS011;62687;55.738;37.516;2022-10-17T16:32:48;16.25;;;7.43;;
74291;SDS011;62687;55.738;37.516;2022-10-17T16:35:33;15.32;;;8.13;;
74291;SDS011;62687;55.738;37.516;2022-10-17T16:38:17;15.48;;;7.72;;
74291;SDS011;62687;55.738;37.516;2022-10-17T16:41:01;16.38;;;7.90;;
74291;SDS011;62687;55.738;37.516;2022-10-17T16:43:47;17.98;;;8.25;;
74291;SDS011;62687;55.738;37.516;2022-10-17T16:46:34;15.50;;;8.13;;
74291;SDS011;62687;55.738;37.516;2022-10-17T16:49:20;13.70;;;7.00;;
74291;SDS011;62687;55.738;37.516;2022-10-17T16:52:04;11.30;;;5.53;;
74291;SDS011;62687;55.738;37.516;2022-10-17T16:54:48;15.13;;;8.45;;
74291;SDS011;62687;55.738;37.516;2022-10-17T16:57:24;11.82;;;6.40;;
74291;SDS011;62687;55.738;37.516;2022-10-17T17:00:08;17.27;;;8.55;;
74291;SDS011;62687;55.738;37.516;2022-10-17T17:02:54;16.65;;;8.38;;
74291;SDS011;62687;55.738;37.516;2022-10-17T17:05:39;8.25;;;5.03;;
74291;SDS011;62687;55.738;37.516;2022-10-17T17:08:23;18.38;;;7.53;;
74291;SDS011;62687;55.738;37.516;2022-10-17T17:11:08;18.15;;;7.80;;
74291;SDS011;62687;55.738;37.516;2022-10-17T17:13:55;15.73;;;8.25;;
74291;SDS011;62687;55.738;37.516;2022-10-17T17:16:40;17.80;;;8.80;;
74291;SDS011;62687;55.738;37.516;2022-10-17T17:19:26;12.05;;;7.57;;
74291;SDS011;62687;55.738;37.516;2022-10-17T17:22:10;10.45;;;5.20;;
74291;SDS011;62687;55.738;37.516;2022-10-17T17:24:54;15.52;;;8.18;;
74291;SDS011;62687;55.738;37.516;2022-10-17T17:27:39;21.20;;;7.97;;
74291;SDS011;62687;55.738;37.516;2022-10-17T17:30:23;12.82;;;6.97;;
74291;SDS011;62687;55.738;37.516;2022-10-17T17:33:07;9.27;;;4.63;;
74291;SDS011;62687;55.738;37.516;2022-10-17T17:35:55;14.77;;;6.57;;
74291;SDS011;62687;55.738;37.516;2022-10-17T17:38:40;14.43;;;8.20;;
74291;SDS011;62687;55.738;37.516;2022-10-17T17:41:25;14.40;;;7.95;;
74291;SDS011;62687;55.738;37.516;2022-10-17T17:44:11;20.35;;;8.55;;
74291;SDS011;62687;55.738;37.516;2022-10-17T17:46:58;12.90;;;6.57;;
74291;SDS011;62687;55.738;37.516;2022-10-17T17:49:42;16.02;;;8.60;;
74291;SDS011;62687;55.738;37.516;2022-10-17T17:52:26;15.90;;;7.53;;
74291;SDS011;62687;55.738;37.516;2022-10-17T17:55:12;15.95;;;8.30;;
74291;SDS011;62687;55.738;37.516;2022-10-17T17:57:56;13.82;;;7.13;;
74291;SDS011;62687;55.738;37.516;2022-10-17T18:00:30;16.63;;;7.25;;
74291;SDS011;62687;55.738;37.516;2022-10-17T18:03:14;18.80;;;7.90;;
74291;SDS011;62687;55.738;37.516;2022-10-17T18:05:58;17.15;;;8.23;;
74291;SDS011;62687;55.738;37.516;2022-10-17T18:08:43;16.92;;;8.07;;
74291;SDS011;62687;55.738;37.516;2022-10-17T18:11:32;13.32;;;8.18;;
74291;SDS011;62687;55.738;37.516;2022-10-17T18:14:16;12.00;;;6.70;;
74291;SDS011;62687;55.738;37.516;2022-10-17T18:19:46;13.00;;;5.43;;
74291;SDS011;62687;55.738;37.516;2022-10-17T18:22:30;16.48;;;8.48;;
74291;SDS011;62687;55.738;37.516;2022-10-17T18:25:14;16.35;;;9.43;;
74291;SDS011;62687;55.738;37.516;2022-10-17T18:27:58;12.00;;;6.55;;
74291;SDS011;62687;55.738;37.516;2022-10-17T18:30:42;15.38;;;7.72;;